sensor_id;sensor_type;location;lat;lon;timestamp;pressure;altitude;pressure_sealevel;temperature;humidity
66486;BME280;53303;47.476;8.084;2022-08-04T00:00:29;96346.31;;;24.44;45.60
66486;BME280;53303;47.476;8.084;2022-08-04T00:08:36;96343.28;;;24.42;45.60
66486;BME280;53303;47.476;8.084;2022-08-04T00:11:08;96345.00;;;24.45;45.51
66486;BME280;53303;47.476;8.084;2022-08-04T00:13:37;96341.72;;;24.47;45.61
66486;BME280;53303;47.476;8.084;2022-08-04T00:16:07;96341.19;;;24.48;45.45
66486;BME280;53303;47.476;8.084;2022-08-04T00:18:54;96338.44;;;24.43;45.71
66486;BME280;53303;47.476;8.084;2022-08-04T00:21:23;96338.44;;;24.43;45.94
66486;BME280;53303;47.476;8.084;2022-08-04T00:23:51;96324.78;;;24.39;45.56
66486;BME280;53303;47.476;8.084;2022-08-04T00:26:17;96330.78;;;24.49;45.79
66486;BME280;53303;47.476;8.084;2022-08-04T00:28:45;96328.00;;;24.49;45.78
66486;BME280;53303;47.476;8.084;2022-08-04T00:31:14;96326.75;;;24.50;45.99
66486;BME280;53303;47.476;8.084;2022-08-04T00:33:45;96306.00;;;24.40;45.98
66486;BME280;53303;47.476;8.084;2022-08-04T00:36:12;96327.50;;;24.50;45.87
66486;BME280;53303;47.476;8.084;2022-08-04T00:38:41;96345.75;;;24.51;45.90
66486;BME280;53303;47.476;8.084;2022-08-04T00:43:57;96338.66;;;24.50;46.04
66486;BME280;53303;47.476;8.084;2022-08-04T00:46:36;96339.44;;;24.51;46.47
66486;BME280;53303;47.476;8.084;2022-08-04T00:52:16;96335.84;;;24.50;46.29
66486;BME280;53303;47.476;8.084;2022-08-04T00:57:22;96337.38;;;24.51;46.18
66486;BME280;53303;47.476;8.084;2022-08-04T01:11:03;96330.78;;;24.49;46.34
66486;BME280;53303;47.476;8.084;2022-08-04T01:16:20;96330.50;;;24.52;46.01
66486;BME280;53303;47.476;8.084;2022-08-04T01:18:59;96331.31;;;24.53;46.37
66486;BME280;53303;47.476;8.084;2022-08-04T01:29:23;96321.44;;;24.46;46.55
66486;BME280;53303;47.476;8.084;2022-08-04T01:32:40;96333.56;;;24.49;46.61
66486;BME280;53303;47.476;8.084;2022-08-04T01:40:26;96321.41;;;24.52;46.38
66486;BME280;53303;47.476;8.084;2022-08-04T01:42:52;96327.25;;;24.54;46.24
66486;BME280;53303;47.476;8.084;2022-08-04T01:45:18;96329.53;;;24.56;46.36
66486;BME280;53303;47.476;8.084;2022-08-04T01:47:53;96327.25;;;24.54;46.34
66486;BME280;53303;47.476;8.084;2022-08-04T01:50:20;96331.78;;;24.57;46.26
66486;BME280;53303;47.476;8.084;2022-08-04T01:52:47;96316.09;;;24.54;45.92
66486;BME280;53303;47.476;8.084;2022-08-04T01:55:15;96323.44;;;24.57;46.09
66486;BME280;53303;47.476;8.084;2022-08-04T01:57:48;96319.63;;;24.49;46.22
66486;BME280;53303;47.476;8.084;2022-08-04T02:00:21;96340.91;;;24.58;46.04
66486;BME280;53303;47.476;8.084;2022-08-04T02:02:49;96340.69;;;24.56;45.93
66486;BME280;53303;47.476;8.084;2022-08-04T02:05:18;96293.63;;;24.29;45.83
66486;BME280;53303;47.476;8.084;2022-08-04T02:08:18;96340.41;;;24.59;45.82
66486;BME280;53303;47.476;8.084;2022-08-04T02:16:32;96313.53;;;24.50;45.56
66486;BME280;53303;47.476;8.084;2022-08-04T02:21:39;96339.06;;;24.72;45.54
66486;BME280;53303;47.476;8.084;2022-08-04T02:24:07;96331.19;;;24.70;45.70
66486;BME280;53303;47.476;8.084;2022-08-04T02:26:35;96331.72;;;24.68;45.44
66486;BME280;53303;47.476;8.084;2022-08-04T02:31:56;96340.81;;;24.75;45.55
66486;BME280;53303;47.476;8.084;2022-08-04T02:36:55;96341.06;;;24.77;45.35
66486;BME280;53303;47.476;8.084;2022-08-04T02:39:22;96336.75;;;24.76;45.34
66486;BME280;53303;47.476;8.084;2022-08-04T02:41:48;96327.91;;;24.72;45.45
66486;BME280;53303;47.476;8.084;2022-08-04T02:44:22;96338.03;;;24.75;45.63
66486;BME280;53303;47.476;8.084;2022-08-04T02:46:51;96342.81;;;24.80;45.59
66486;BME280;53303;47.476;8.084;2022-08-04T02:49:17;96342.31;;;24.81;45.64
66486;BME280;53303;47.476;8.084;2022-08-04T02:51:49;96345.09;;;24.81;45.55
66486;BME280;53303;47.476;8.084;2022-08-04T02:54:19;96339.25;;;24.79;45.30
66486;BME280;53303;47.476;8.084;2022-08-04T02:56:50;96341.78;;;24.83;45.67
66486;BME280;53303;47.476;8.084;2022-08-04T02:59:19;96320.03;;;24.70;45.52
66486;BME280;53303;47.476;8.084;2022-08-04T03:01:47;96339.75;;;24.83;45.20
66486;BME280;53303;47.476;8.084;2022-08-04T03:04:20;96346.09;;;24.84;45.58
66486;BME280;53303;47.476;8.084;2022-08-04T03:08:11;96339.25;;;24.79;45.59
66486;BME280;53303;47.476;8.084;2022-08-04T03:15:54;96346.09;;;24.84;45.41
66486;BME280;53303;47.476;8.084;2022-08-04T03:26:44;96340.28;;;24.82;45.60
66486;BME280;53303;47.476;8.084;2022-08-04T03:43:56;96337.94;;;24.86;45.77
66486;BME280;53303;47.476;8.084;2022-08-04T03:46:46;96340.75;;;24.86;45.80
66486;BME280;53303;47.476;8.084;2022-08-04T03:57:46;96359.03;;;24.87;45.50
66486;BME280;53303;47.476;8.084;2022-08-04T04:00:28;96347.84;;;24.87;45.59
66486;BME280;53303;47.476;8.084;2022-08-04T04:17:27;96339.81;;;24.78;47.73
66486;BME280;53303;47.476;8.084;2022-08-04T04:25:42;96366.41;;;24.79;47.51
66486;BME280;53303;47.476;8.084;2022-08-04T04:34:01;96360.63;;;24.71;47.72
66486;BME280;53303;47.476;8.084;2022-08-04T04:36:56;96371.03;;;24.70;47.69
66486;BME280;53303;47.476;8.084;2022-08-04T04:39:51;96365.22;;;24.68;47.79
66486;BME280;53303;47.476;8.084;2022-08-04T04:45:20;96368.50;;;24.67;47.77
66486;BME280;53303;47.476;8.084;2022-08-04T04:48:16;96375.88;;;24.64;47.87
66486;BME280;53303;47.476;8.084;2022-08-04T04:58:36;96375.59;;;24.74;48.23
66486;BME280;53303;47.476;8.084;2022-08-04T05:06:27;96377.66;;;24.67;48.67
66486;BME280;53303;47.476;8.084;2022-08-04T05:09:25;96380.44;;;24.67;48.84
66486;BME280;53303;47.476;8.084;2022-08-04T05:14:42;96383.06;;;24.43;49.54
66486;BME280;53303;47.476;8.084;2022-08-04T05:17:21;96369.56;;;24.52;49.28
66486;BME280;53303;47.476;8.084;2022-08-04T05:19:58;96381.25;;;24.62;49.00
66486;BME280;53303;47.476;8.084;2022-08-04T05:28:17;96384.25;;;24.64;49.12
66486;BME280;53303;47.476;8.084;2022-08-04T05:30:59;96380.50;;;24.62;49.14
66486;BME280;53303;47.476;8.084;2022-08-04T05:33:32;96387.06;;;24.64;48.96
66486;BME280;53303;47.476;8.084;2022-08-04T05:36:04;96395.41;;;24.70;48.89
66486;BME280;53303;47.476;8.084;2022-08-04T05:38:34;96396.91;;;24.71;48.99
66486;BME280;53303;47.476;8.084;2022-08-04T05:41:02;96393.69;;;24.56;49.34
66486;BME280;53303;47.476;8.084;2022-08-04T05:43:33;96385.31;;;24.50;49.21
66486;BME280;53303;47.476;8.084;2022-08-04T05:46:03;96384.53;;;24.61;48.95
66486;BME280;53303;47.476;8.084;2022-08-04T05:48:31;96391.09;;;24.69;48.90
66486;BME280;53303;47.476;8.084;2022-08-04T05:50:57;96392.09;;;24.72;48.76
66486;BME280;53303;47.476;8.084;2022-08-04T05:53:24;96373.31;;;24.72;48.21
66486;BME280;53303;47.476;8.084;2022-08-04T05:55:51;96371.31;;;24.67;46.67
66486;BME280;53303;47.476;8.084;2022-08-04T05:58:17;96370.09;;;24.57;43.73
66486;BME280;53303;47.476;8.084;2022-08-04T06:00:46;96375.22;;;24.41;42.22
66486;BME280;53303;47.476;8.084;2022-08-04T06:03:14;96384.16;;;24.28;41.55
66486;BME280;53303;47.476;8.084;2022-08-04T06:05:41;96373.56;;;24.16;41.23
66486;BME280;53303;47.476;8.084;2022-08-04T06:08:11;96367.25;;;24.04;41.53
66486;BME280;53303;47.476;8.084;2022-08-04T06:10:38;96367.28;;;23.98;41.42
66486;BME280;53303;47.476;8.084;2022-08-04T06:13:07;96367.06;;;23.90;41.75
66486;BME280;53303;47.476;8.084;2022-08-04T06:15:38;96377.44;;;23.84;41.92
66486;BME280;53303;47.476;8.084;2022-08-04T06:18:06;96366.03;;;23.76;42.20
66486;BME280;53303;47.476;8.084;2022-08-04T06:20:34;96368.06;;;23.70;41.99
66486;BME280;53303;47.476;8.084;2022-08-04T06:23:07;96368.09;;;23.65;42.54
66486;BME280;53303;47.476;8.084;2022-08-04T06:25:38;96368.84;;;23.60;42.55
66486;BME280;53303;47.476;8.084;2022-08-04T06:28:06;96375.19;;;23.60;42.37
66486;BME280;53303;47.476;8.084;2022-08-04T06:30:33;96363.78;;;23.52;42.17
66486;BME280;53303;47.476;8.084;2022-08-04T06:33:00;96357.75;;;23.43;42.06
66486;BME280;53303;47.476;8.084;2022-08-04T06:35:28;96376.22;;;23.51;41.90
66486;BME280;53303;47.476;8.084;2022-08-04T06:37:55;96378.47;;;23.47;42.10
66486;BME280;53303;47.476;8.084;2022-08-04T06:40:23;96368.38;;;23.44;41.94
66486;BME280;53303;47.476;8.084;2022-08-04T06:42:50;96372.16;;;23.41;41.99
66486;BME280;53303;47.476;8.084;2022-08-04T06:45:18;96375.22;;;23.37;41.97
66486;BME280;53303;47.476;8.084;2022-08-04T06:47:45;96371.41;;;23.29;41.99
66486;BME280;53303;47.476;8.084;2022-08-04T06:50:13;96380.78;;;23.32;42.15
66486;BME280;53303;47.476;8.084;2022-08-04T06:52:40;96383.81;;;23.28;42.02
66486;BME280;53303;47.476;8.084;2022-08-04T06:55:06;96373.69;;;23.25;42.06
66486;BME280;53303;47.476;8.084;2022-08-04T06:57:34;96385.56;;;23.26;42.13
66486;BME280;53303;47.476;8.084;2022-08-04T07:00:09;96376.97;;;23.24;42.27
66486;BME280;53303;47.476;8.084;2022-08-04T07:02:56;96383.81;;;23.17;42.32
66486;BME280;53303;47.476;8.084;2022-08-04T07:05:22;96384.59;;;23.17;42.36
66486;BME280;53303;47.476;8.084;2022-08-04T07:07:49;96385.84;;;23.16;42.37
66486;BME280;53303;47.476;8.084;2022-08-04T07:10:15;96384.31;;;23.15;42.39
66486;BME280;53303;47.476;8.084;2022-08-04T07:12:44;96370.38;;;23.10;42.58
66486;BME280;53303;47.476;8.084;2022-08-04T07:15:10;96369.88;;;23.06;42.42
66486;BME280;53303;47.476;8.084;2022-08-04T07:17:39;96380.78;;;23.09;42.50
66486;BME280;53303;47.476;8.084;2022-08-04T07:20:05;96368.31;;;22.99;42.55
66486;BME280;53303;47.476;8.084;2022-08-04T07:22:32;96377.72;;;23.02;42.45
66486;BME280;53303;47.476;8.084;2022-08-04T07:24:58;96385.34;;;23.07;42.64
66486;BME280;53303;47.476;8.084;2022-08-04T07:27:25;96385.34;;;23.07;42.69
66486;BME280;53303;47.476;8.084;2022-08-04T07:29:51;96385.84;;;23.05;42.73
66486;BME280;53303;47.476;8.084;2022-08-04T07:32:21;96387.06;;;23.04;42.64
66486;BME280;53303;47.476;8.084;2022-08-04T07:34:50;96386.81;;;23.02;42.64
66486;BME280;53303;47.476;8.084;2022-08-04T07:37:17;96386.81;;;23.02;42.66
66486;BME280;53303;47.476;8.084;2022-08-04T07:39:43;96371.34;;;22.90;42.64
66486;BME280;53303;47.476;8.084;2022-08-04T07:42:09;96383.00;;;22.94;42.75
66486;BME280;53303;47.476;8.084;2022-08-04T07:44:36;96378.47;;;22.96;42.63
66486;BME280;53303;47.476;8.084;2022-08-04T07:47:05;96379.72;;;22.95;42.69
66486;BME280;53303;47.476;8.084;2022-08-04T07:49:34;96371.34;;;22.95;42.93
66486;BME280;53303;47.476;8.084;2022-08-04T07:52:00;96385.03;;;22.93;43.02
66486;BME280;53303;47.476;8.084;2022-08-04T07:54:26;96381.00;;;22.94;42.98
66486;BME280;53303;47.476;8.084;2022-08-04T07:56:52;96376.94;;;22.95;43.06
66486;BME280;53303;47.476;8.084;2022-08-04T07:59:18;96378.47;;;22.96;43.01
66486;BME280;53303;47.476;8.084;2022-08-04T08:01:45;96374.13;;;22.95;43.01
66486;BME280;53303;47.476;8.084;2022-08-04T08:04:11;96365.53;;;22.82;42.92
66486;BME280;53303;47.476;8.084;2022-08-04T08:06:38;96374.94;;;22.96;43.16
66486;BME280;53303;47.476;8.084;2022-08-04T08:09:11;96378.47;;;22.96;43.01
66486;BME280;53303;47.476;8.084;2022-08-04T08:11:37;96369.81;;;22.89;43.17
66486;BME280;53303;47.476;8.084;2022-08-04T08:14:03;96379.72;;;22.95;42.99
66486;BME280;53303;47.476;8.084;2022-08-04T08:16:34;96372.63;;;22.94;43.06
66486;BME280;53303;47.476;8.084;2022-08-04T08:19:02;96376.94;;;22.95;43.17
66486;BME280;53303;47.476;8.084;2022-08-04T08:21:28;96361.72;;;22.85;43.13
66486;BME280;53303;47.476;8.084;2022-08-04T08:23:59;96351.88;;;22.84;43.10
66486;BME280;53303;47.476;8.084;2022-08-04T08:26:25;96375.19;;;22.98;43.06
66486;BME280;53303;47.476;8.084;2022-08-04T08:28:51;96384.78;;;22.97;43.11
66486;BME280;53303;47.476;8.084;2022-08-04T08:31:17;96374.41;;;22.97;43.11
66486;BME280;53303;47.476;8.084;2022-08-04T08:33:48;96372.13;;;22.96;43.03
66486;BME280;53303;47.476;8.084;2022-08-04T08:36:34;96369.84;;;22.94;43.26
66486;BME280;53303;47.476;8.084;2022-08-04T08:55:48;96367.06;;;23.00;43.18
66486;BME280;53303;47.476;8.084;2022-08-04T08:58:43;96367.03;;;22.89;43.51
66486;BME280;53303;47.476;8.084;2022-08-04T09:01:26;96361.00;;;23.02;43.27
66486;BME280;53303;47.476;8.084;2022-08-04T09:04:41;96372.66;;;23.06;43.14
66486;BME280;53303;47.476;8.084;2022-08-04T09:07:05;96366.06;;;23.03;43.09
66486;BME280;53303;47.476;8.084;2022-08-04T09:15:15;96370.09;;;22.96;43.28
66486;BME280;53303;47.476;8.084;2022-08-04T09:17:26;96370.13;;;23.08;43.03
66486;BME280;53303;47.476;8.084;2022-08-04T09:20:05;96358.00;;;23.05;42.95
66486;BME280;53303;47.476;8.084;2022-08-04T09:23:02;96370.63;;;23.12;42.86
66486;BME280;53303;47.476;8.084;2022-08-04T09:25:41;96370.66;;;23.17;42.76
66486;BME280;53303;47.476;8.084;2022-08-04T09:28:28;96368.13;;;23.19;42.58
66486;BME280;53303;47.476;8.084;2022-08-04T09:31:12;96371.41;;;23.18;42.57
66486;BME280;53303;47.476;8.084;2022-08-04T09:33:45;96371.16;;;23.27;42.64
66486;BME280;53303;47.476;8.084;2022-08-04T09:36:23;96363.81;;;23.30;42.69
66486;BME280;53303;47.476;8.084;2022-08-04T09:42:27;96362.03;;;23.32;42.37
66486;BME280;53303;47.476;8.084;2022-08-04T09:45:11;96358.00;;;23.33;42.35
66486;BME280;53303;47.476;8.084;2022-08-04T09:47:55;96361.28;;;23.37;42.13
66486;BME280;53303;47.476;8.084;2022-08-04T10:02:06;96357.22;;;23.50;42.22
66486;BME280;53303;47.476;8.084;2022-08-04T10:04:35;96351.41;;;23.53;41.96
66486;BME280;53303;47.476;8.084;2022-08-04T10:15:39;96338.97;;;23.66;41.58
66486;BME280;53303;47.476;8.084;2022-08-04T10:26:48;96334.38;;;23.74;41.45
66486;BME280;53303;47.476;8.084;2022-08-04T10:29:44;96324.50;;;23.73;41.41
66486;BME280;53303;47.476;8.084;2022-08-04T10:32:25;96324.25;;;23.76;41.40
66486;BME280;53303;47.476;8.084;2022-08-04T10:35:25;96329.56;;;23.80;41.32
66486;BME280;53303;47.476;8.084;2022-08-04T10:40:35;96316.41;;;23.81;41.30
66486;BME280;53303;47.476;8.084;2022-08-04T10:51:18;96310.28;;;23.88;41.11
66486;BME280;53303;47.476;8.084;2022-08-04T10:53:54;96271.84;;;23.69;41.20
66486;BME280;53303;47.476;8.084;2022-08-04T10:56:28;96308.25;;;23.94;41.09
66486;BME280;53303;47.476;8.084;2022-08-04T10:59:02;96303.66;;;23.97;41.39
66486;BME280;53303;47.476;8.084;2022-08-04T11:01:38;96298.13;;;23.91;41.58
66486;BME280;53303;47.476;8.084;2022-08-04T11:04:30;96299.88;;;24.00;41.33
66486;BME280;53303;47.476;8.084;2022-08-04T11:07:01;96300.88;;;23.97;41.45
66486;BME280;53303;47.476;8.084;2022-08-04T11:09:27;96289.94;;;24.04;41.35
66486;BME280;53303;47.476;8.084;2022-08-04T11:12:05;96292.22;;;24.06;41.41
66486;BME280;53303;47.476;8.084;2022-08-04T11:14:40;96292.97;;;24.06;41.32
66486;BME280;53303;47.476;8.084;2022-08-04T11:17:28;96281.38;;;23.97;41.54
66486;BME280;53303;47.476;8.084;2022-08-04T11:20:19;96293.50;;;24.05;41.23
66486;BME280;53303;47.476;8.084;2022-08-04T11:23:02;96296.03;;;24.08;41.50
66486;BME280;53303;47.476;8.084;2022-08-04T11:25:46;96290.19;;;24.06;41.47
66486;BME280;53303;47.476;8.084;2022-08-04T11:29:00;96293.31;;;23.91;41.65
66486;BME280;53303;47.476;8.084;2022-08-04T11:31:07;96289.44;;;24.06;41.54
66486;BME280;53303;47.476;8.084;2022-08-04T11:36:44;96289.91;;;24.10;41.18
66486;BME280;53303;47.476;8.084;2022-08-04T11:39:24;96290.69;;;24.10;41.29
66486;BME280;53303;47.476;8.084;2022-08-04T11:41:57;96287.63;;;24.14;41.32
66486;BME280;53303;47.476;8.084;2022-08-04T11:44:47;96292.97;;;24.12;41.33
66486;BME280;53303;47.476;8.084;2022-08-04T11:47:33;96286.09;;;24.13;41.42
66486;BME280;53303;47.476;8.084;2022-08-04T11:50:12;96293.19;;;24.20;41.50
66486;BME280;53303;47.476;8.084;2022-08-04T11:52:40;96289.13;;;24.21;41.29
66486;BME280;53303;47.476;8.084;2022-08-04T11:55:12;96285.81;;;24.22;41.18
66486;BME280;53303;47.476;8.084;2022-08-04T11:57:39;96288.84;;;24.24;41.30
66486;BME280;53303;47.476;8.084;2022-08-04T12:00:12;96282.50;;;24.24;41.12
66486;BME280;53303;47.476;8.084;2022-08-04T12:06:08;96280.22;;;24.22;41.49
66486;BME280;53303;47.476;8.084;2022-08-04T12:08:39;96268.78;;;24.26;41.44
66486;BME280;53303;47.476;8.084;2022-08-04T12:13:47;96266.78;;;24.26;41.18
66486;BME280;53303;47.476;8.084;2022-08-04T12:19:38;96260.22;;;24.18;41.09
66486;BME280;53303;47.476;8.084;2022-08-04T12:22:10;96266.53;;;24.24;41.14
66486;BME280;53303;47.476;8.084;2022-08-04T12:24:44;96271.34;;;24.24;41.05
66486;BME280;53303;47.476;8.084;2022-08-04T12:27:17;96243.03;;;24.14;41.30
66486;BME280;53303;47.476;8.084;2022-08-04T12:29:45;96254.09;;;24.25;41.11
66486;BME280;53303;47.476;8.084;2022-08-04T12:32:24;96249.81;;;24.24;40.76
66486;BME280;53303;47.476;8.084;2022-08-04T12:35:02;96262.22;;;24.23;40.88
66486;BME280;53303;47.476;8.084;2022-08-04T12:37:40;96254.09;;;24.25;40.92
66486;BME280;53303;47.476;8.084;2022-08-04T12:40:15;96256.16;;;24.25;40.41
66486;BME280;53303;47.476;8.084;2022-08-04T12:42:46;96253.06;;;24.28;40.31
66486;BME280;53303;47.476;8.084;2022-08-04T12:45:22;96245.22;;;24.27;40.22
66486;BME280;53303;47.476;8.084;2022-08-04T12:47:50;96248.75;;;24.27;40.21
66486;BME280;53303;47.476;8.084;2022-08-04T12:50:18;96240.41;;;24.27;40.26
66486;BME280;53303;47.476;8.084;2022-08-04T12:52:58;96244.19;;;24.30;40.69
66486;BME280;53303;47.476;8.084;2022-08-04T12:55:27;96239.38;;;24.30;40.50
66486;BME280;53303;47.476;8.084;2022-08-04T12:57:53;96242.91;;;24.31;40.71
66486;BME280;53303;47.476;8.084;2022-08-04T13:00:32;96232.25;;;24.29;40.72
66486;BME280;53303;47.476;8.084;2022-08-04T13:03:05;96228.97;;;24.31;40.60
66486;BME280;53303;47.476;8.084;2022-08-04T13:05:35;96218.59;;;24.26;40.69
66486;BME280;53303;47.476;8.084;2022-08-04T13:08:04;96227.94;;;24.34;40.79
66486;BME280;53303;47.476;8.084;2022-08-04T13:10:37;96225.91;;;24.35;40.64
66486;BME280;53303;47.476;8.084;2022-08-04T13:13:10;96208.94;;;24.32;40.46
66486;BME280;53303;47.476;8.084;2022-08-04T13:15:39;96214.75;;;24.35;40.59
66486;BME280;53303;47.476;8.084;2022-08-04T13:18:07;96224.34;;;24.39;40.79
66486;BME280;53303;47.476;8.084;2022-08-04T13:20:36;96214.97;;;24.42;40.75
66486;BME280;53303;47.476;8.084;2022-08-04T13:23:14;96210.66;;;24.41;40.68
66486;BME280;53303;47.476;8.084;2022-08-04T13:25:46;96215.47;;;24.41;40.67
66486;BME280;53303;47.476;8.084;2022-08-04T13:28:24;96210.91;;;24.38;40.72
66486;BME280;53303;47.476;8.084;2022-08-04T13:30:56;96202.03;;;24.39;40.67
66486;BME280;53303;47.476;8.084;2022-08-04T13:33:28;96203.03;;;24.42;41.27
66486;BME280;53303;47.476;8.084;2022-08-04T13:35:56;96190.38;;;24.41;41.60
66486;BME280;53303;47.476;8.084;2022-08-04T13:38:26;96180.19;;;24.43;41.79
66486;BME280;53303;47.476;8.084;2022-08-04T13:40:55;96186.56;;;24.44;42.02
66486;BME280;53303;47.476;8.084;2022-08-04T13:43:26;96176.44;;;24.41;41.50
66486;BME280;53303;47.476;8.084;2022-08-04T13:45:59;96177.97;;;24.36;41.37
66486;BME280;53303;47.476;8.084;2022-08-04T13:48:30;96177.22;;;24.36;41.37
66486;BME280;53303;47.476;8.084;2022-08-04T13:51:01;96167.09;;;24.32;41.37
66486;BME280;53303;47.476;8.084;2022-08-04T13:53:31;96130.75;;;24.08;41.53
66486;BME280;53303;47.476;8.084;2022-08-04T13:55:58;96162.81;;;24.31;41.50
66486;BME280;53303;47.476;8.084;2022-08-04T13:58:26;96160.03;;;24.31;41.96
66486;BME280;53303;47.476;8.084;2022-08-04T14:01:01;96152.69;;;24.28;41.80
66486;BME280;53303;47.476;8.084;2022-08-04T14:03:37;96152.91;;;24.30;41.69
66486;BME280;53303;47.476;8.084;2022-08-04T14:08:54;96156.97;;;24.29;41.52
66486;BME280;53303;47.476;8.084;2022-08-04T14:11:30;96150.13;;;24.30;41.59
66486;BME280;53303;47.476;8.084;2022-08-04T14:14:00;96154.44;;;24.31;41.37
66486;BME280;53303;47.476;8.084;2022-08-04T14:16:26;96151.09;;;24.33;41.57
66486;BME280;53303;47.476;8.084;2022-08-04T14:18:59;96150.34;;;24.32;41.51
66486;BME280;53303;47.476;8.084;2022-08-04T14:21:26;96142.22;;;24.35;41.52
66486;BME280;53303;47.476;8.084;2022-08-04T14:23:55;96135.91;;;24.34;41.42
66486;BME280;53303;47.476;8.084;2022-08-04T14:31:33;96132.38;;;24.33;41.41
66486;BME280;53303;47.476;8.084;2022-08-04T14:33:59;96129.56;;;24.33;41.37
66486;BME280;53303;47.476;8.084;2022-08-04T14:36:24;96129.34;;;24.31;41.54
66486;BME280;53303;47.476;8.084;2022-08-04T14:38:56;96113.91;;;24.25;41.55
66486;BME280;53303;47.476;8.084;2022-08-04T14:41:24;96128.03;;;24.32;41.37
66486;BME280;53303;47.476;8.084;2022-08-04T14:43:55;96121.94;;;24.34;41.49
66486;BME280;53303;47.476;8.084;2022-08-04T14:46:23;96125.50;;;24.35;41.15
66486;BME280;53303;47.476;8.084;2022-08-04T14:51:54;96117.94;;;24.29;41.18
66486;BME280;53303;47.476;8.084;2022-08-04T14:54:39;96120.72;;;24.29;41.28
66486;BME280;53303;47.476;8.084;2022-08-04T14:57:06;96125.50;;;24.35;41.38
66486;BME280;53303;47.476;8.084;2022-08-04T14:59:43;96115.63;;;24.33;41.29
66486;BME280;53303;47.476;8.084;2022-08-04T15:02:10;96114.34;;;24.35;41.15
66486;BME280;53303;47.476;8.084;2022-08-04T15:04:39;96119.91;;;24.35;41.33
66486;BME280;53303;47.476;8.084;2022-08-04T15:07:07;96121.22;;;24.33;41.55
66486;BME280;53303;47.476;8.084;2022-08-04T15:09:32;96106.03;;;24.29;41.45
66486;BME280;53303;47.476;8.084;2022-08-04T15:11:58;96114.56;;;24.37;41.44
66486;BME280;53303;47.476;8.084;2022-08-04T15:14:24;96079.28;;;24.14;41.42
66486;BME280;53303;47.476;8.084;2022-08-04T15:16:50;96113.31;;;24.38;41.21
66486;BME280;53303;47.476;8.084;2022-08-04T15:19:16;96109.25;;;24.39;41.28
66486;BME280;53303;47.476;8.084;2022-08-04T15:21:45;96107.72;;;24.38;41.01
66486;BME280;53303;47.476;8.084;2022-08-04T15:24:13;96111.78;;;24.37;41.33
66486;BME280;53303;47.476;8.084;2022-08-04T15:26:43;96105.44;;;24.36;41.29
66486;BME280;53303;47.476;8.084;2022-08-04T15:31:44;96103.47;;;24.31;41.09
66486;BME280;53303;47.476;8.084;2022-08-04T15:34:10;96085.97;;;24.30;40.93
66486;BME280;53303;47.476;8.084;2022-08-04T15:36:37;96100.63;;;24.37;41.01
66486;BME280;53303;47.476;8.084;2022-08-04T15:41:54;96083.13;;;24.36;41.07
66486;BME280;53303;47.476;8.084;2022-08-04T15:47:21;96089.00;;;24.32;41.02
66486;BME280;53303;47.476;8.084;2022-08-04T15:50:02;96090.28;;;24.31;41.07
66486;BME280;53303;47.476;8.084;2022-08-04T15:55:33;96085.97;;;24.30;40.93
66486;BME280;53303;47.476;8.084;2022-08-04T15:58:14;96071.28;;;24.30;40.84
66486;BME280;53303;47.476;8.084;2022-08-04T16:21:34;96075.41;;;24.23;40.53
66486;BME280;53303;47.476;8.084;2022-08-04T16:24:35;96074.66;;;24.23;40.77
66486;BME280;53303;47.476;8.084;2022-08-04T16:27:03;96074.88;;;24.25;40.82
66486;BME280;53303;47.476;8.084;2022-08-04T16:34:45;96071.09;;;24.22;40.51
66486;BME280;53303;47.476;8.084;2022-08-04T16:37:13;96072.59;;;24.23;40.60
66486;BME280;53303;47.476;8.084;2022-08-04T16:39:39;96064.00;;;24.21;40.52
66486;BME280;53303;47.476;8.084;2022-08-04T16:42:28;96029.53;;;23.94;40.36
66486;BME280;53303;47.476;8.084;2022-08-04T16:45:15;96069.13;;;24.17;40.36
66486;BME280;53303;47.476;8.084;2022-08-04T16:50:21;96063.00;;;24.19;40.43
66486;BME280;53303;47.476;8.084;2022-08-04T16:52:55;96032.72;;;24.04;40.40
66486;BME280;53303;47.476;8.084;2022-08-04T16:55:27;96063.00;;;24.19;40.47
66486;BME280;53303;47.476;8.084;2022-08-04T16:57:57;96065.03;;;24.18;40.29
66486;BME280;53303;47.476;8.084;2022-08-04T17:00:33;96052.94;;;24.10;40.38
66486;BME280;53303;47.476;8.084;2022-08-04T17:03:05;96064.34;;;24.12;40.39
66486;BME280;53303;47.476;8.084;2022-08-04T17:05:32;96073.69;;;24.14;40.78
66486;BME280;53303;47.476;8.084;2022-08-04T17:07:58;96067.72;;;24.05;41.07
66486;BME280;53303;47.476;8.084;2022-08-04T17:13:19;96061.53;;;23.76;41.55
66486;BME280;53303;47.476;8.084;2022-08-04T17:15:54;96070.66;;;23.82;41.50
66486;BME280;53303;47.476;8.084;2022-08-04T17:18:22;96072.94;;;23.84;41.92
66486;BME280;53303;47.476;8.084;2022-08-04T17:20:49;96061.53;;;23.76;42.06
66486;BME280;53303;47.476;8.084;2022-08-04T17:23:32;96057.81;;;23.68;42.18
66486;BME280;53303;47.476;8.084;2022-08-04T17:26:05;96073.97;;;23.75;42.25
66486;BME280;53303;47.476;8.084;2022-08-04T17:28:34;96070.94;;;23.73;42.01
66486;BME280;53303;47.476;8.084;2022-08-04T17:31:01;96073.47;;;23.76;42.77
66486;BME280;53303;47.476;8.084;2022-08-04T17:33:28;96076.69;;;23.86;42.97
66486;BME280;53303;47.476;8.084;2022-08-04T17:35:58;96073.59;;;23.95;42.76
66486;BME280;53303;47.476;8.084;2022-08-04T17:38:29;96079.09;;;24.07;42.83
66486;BME280;53303;47.476;8.084;2022-08-04T17:41:01;96081.53;;;24.16;42.56
66486;BME280;53303;47.476;8.084;2022-08-04T17:51:54;96069.41;;;24.13;40.86
66486;BME280;53303;47.476;8.084;2022-08-04T17:56:52;96073.00;;;24.08;40.94
66486;BME280;53303;47.476;8.084;2022-08-04T17:59:39;96061.88;;;24.03;41.22
66486;BME280;53303;47.476;8.084;2022-08-04T18:02:05;96051.06;;;23.93;41.31
66486;BME280;53303;47.476;8.084;2022-08-04T18:04:38;96070.78;;;24.01;41.21
66486;BME280;53303;47.476;8.084;2022-08-04T18:07:12;96067.72;;;23.99;41.42
66486;BME280;53303;47.476;8.084;2022-08-04T18:12:29;96077.66;;;23.94;41.39
66486;BME280;53303;47.476;8.084;2022-08-04T18:15:03;96065.25;;;23.90;41.52